sensor_id;sensor_type;location;lat;lon;timestamp;P1;durP1;ratioP1;P2;durP2;ratioP2
52878;SDS011;38747;53.140;6.498;2024-03-02T00:02:24;4.17;;;1.60;;
52878;SDS011;38747;53.140;6.498;2024-03-02T00:04:50;5.60;;;1.80;;
52878;SDS011;38747;53.140;6.498;2024-03-02T00:07:16;5.38;;;2.00;;
52878;SDS011;38747;53.140;6.498;2024-03-02T00:09:42;4.72;;;1.80;;
52878;SDS011;38747;53.140;6.498;2024-03-02T00:12:07;5.40;;;1.73;;
52878;SDS011;38747;53.140;6.498;2024-03-02T00:14:35;6.07;;;2.00;;
52878;SDS011;38747;53.140;6.498;2024-03-02T00:17:01;4.23;;;1.67;;
52878;SDS011;38747;53.140;6.498;2024-03-02T00:19:27;4.88;;;1.70;;
52878;SDS011;38747;53.140;6.498;2024-03-02T00:21:53;5.15;;;2.00;;
52878;SDS011;38747;53.140;6.498;2024-03-02T00:24:34;4.77;;;2.20;;
52878;SDS011;38747;53.140;6.498;2024-03-02T00:27:01;4.53;;;1.90;;
52878;SDS011;38747;53.140;6.498;2024-03-02T00:29:28;5.78;;;2.25;;
52878;SDS011;38747;53.140;6.498;2024-03-02T00:31:55;5.23;;;1.90;;
52878;SDS011;38747;53.140;6.498;2024-03-02T00:34:23;4.75;;;1.92;;
52878;SDS011;38747;53.140;6.498;2024-03-02T00:36:57;6.40;;;2.03;;
52878;SDS011;38747;53.140;6.498;2024-03-02T00:39:24;5.68;;;2.10;;
52878;SDS011;38747;53.140;6.498;2024-03-02T00:41:50;5.60;;;2.17;;
52878;SDS011;38747;53.140;6.498;2024-03-02T00:44:16;5.95;;;2.08;;
52878;SDS011;38747;53.140;6.498;2024-03-02T00:46:45;5.85;;;2.20;;
52878;SDS011;38747;53.140;6.498;2024-03-02T00:51:37;5.93;;;2.03;;
52878;SDS011;38747;53.140;6.498;2024-03-02T00:54:04;5.15;;;1.98;;
52878;SDS011;38747;53.140;6.498;2024-03-02T00:56:31;6.55;;;2.15;;
52878;SDS011;38747;53.140;6.498;2024-03-02T00:58:58;4.85;;;1.90;;
52878;SDS011;38747;53.140;6.498;2024-03-02T01:01:23;5.00;;;2.00;;
52878;SDS011;38747;53.140;6.498;2024-03-02T01:03:49;6.75;;;2.00;;
52878;SDS011;38747;53.140;6.498;2024-03-02T01:06:15;5.05;;;1.80;;
52878;SDS011;38747;53.140;6.498;2024-03-02T01:08:41;5.03;;;1.77;;
52878;SDS011;38747;53.140;6.498;2024-03-02T01:11:12;6.13;;;1.90;;
52878;SDS011;38747;53.140;6.498;2024-03-02T01:13:38;4.88;;;1.80;;
52878;SDS011;38747;53.140;6.498;2024-03-02T01:16:05;5.30;;;1.90;;
52878;SDS011;38747;53.140;6.498;2024-03-02T01:18:31;5.68;;;1.80;;
52878;SDS011;38747;53.140;6.498;2024-03-02T01:20:58;4.18;;;1.73;;
52878;SDS011;38747;53.140;6.498;2024-03-02T01:23:24;4.83;;;1.60;;
52878;SDS011;38747;53.140;6.498;2024-03-02T01:25:51;3.92;;;1.52;;
52878;SDS011;38747;53.140;6.498;2024-03-02T01:28:17;5.45;;;1.80;;
52878;SDS011;38747;53.140;6.498;2024-03-02T01:30:44;4.63;;;1.60;;
52878;SDS011;38747;53.140;6.498;2024-03-02T01:33:09;5.40;;;1.90;;
52878;SDS011;38747;53.140;6.498;2024-03-02T01:35:35;6.28;;;1.80;;
52878;SDS011;38747;53.140;6.498;2024-03-02T01:38:02;4.63;;;1.90;;
52878;SDS011;38747;53.140;6.498;2024-03-02T01:40:28;4.60;;;1.73;;
52878;SDS011;38747;53.140;6.498;2024-03-02T01:42:54;5.40;;;1.87;;
52878;SDS011;38747;53.140;6.498;2024-03-02T01:45:20;5.40;;;1.73;;
52878;SDS011;38747;53.140;6.498;2024-03-02T01:47:46;5.30;;;1.75;;
52878;SDS011;38747;53.140;6.498;2024-03-02T01:50:12;5.07;;;1.85;;
52878;SDS011;38747;53.140;6.498;2024-03-02T01:52:38;6.43;;;2.00;;
52878;SDS011;38747;53.140;6.498;2024-03-02T01:55:05;6.75;;;2.20;;
52878;SDS011;38747;53.140;6.498;2024-03-02T01:57:32;5.72;;;1.52;;
52878;SDS011;38747;53.140;6.498;2024-03-02T01:59:58;5.15;;;1.90;;
52878;SDS011;38747;53.140;6.498;2024-03-02T02:02:25;4.88;;;1.80;;
52878;SDS011;38747;53.140;6.498;2024-03-02T02:04:50;5.83;;;2.30;;
52878;SDS011;38747;53.140;6.498;2024-03-02T02:07:16;4.33;;;1.97;;
52878;SDS011;38747;53.140;6.498;2024-03-02T02:09:42;4.78;;;1.80;;
52878;SDS011;38747;53.140;6.498;2024-03-02T02:12:07;5.03;;;1.97;;
52878;SDS011;38747;53.140;6.498;2024-03-02T02:14:34;5.75;;;1.90;;
52878;SDS011;38747;53.140;6.498;2024-03-02T02:17:00;5.07;;;1.70;;
52878;SDS011;38747;53.140;6.498;2024-03-02T02:19:26;4.63;;;1.80;;
52878;SDS011;38747;53.140;6.498;2024-03-02T02:21:51;5.55;;;2.22;;
52878;SDS011;38747;53.140;6.498;2024-03-02T02:24:17;5.87;;;2.00;;
52878;SDS011;38747;53.140;6.498;2024-03-02T02:26:42;5.97;;;2.03;;
52878;SDS011;38747;53.140;6.498;2024-03-02T02:29:08;5.57;;;2.22;;
52878;SDS011;38747;53.140;6.498;2024-03-02T02:31:37;4.70;;;1.83;;
52878;SDS011;38747;53.140;6.498;2024-03-02T02:34:04;5.15;;;2.10;;
52878;SDS011;38747;53.140;6.498;2024-03-02T02:36:29;5.90;;;1.90;;
52878;SDS011;38747;53.140;6.498;2024-03-02T02:38:55;5.90;;;2.05;;
52878;SDS011;38747;53.140;6.498;2024-03-02T02:41:21;5.70;;;2.10;;
52878;SDS011;38747;53.140;6.498;2024-03-02T02:43:47;5.85;;;2.00;;
52878;SDS011;38747;53.140;6.498;2024-03-02T02:46:13;6.17;;;1.97;;
52878;SDS011;38747;53.140;6.498;2024-03-02T02:48:38;7.00;;;2.20;;
52878;SDS011;38747;53.140;6.498;2024-03-02T02:51:04;5.33;;;2.10;;
52878;SDS011;38747;53.140;6.498;2024-03-02T02:53:29;6.70;;;2.30;;
52878;SDS011;38747;53.140;6.498;2024-03-02T02:55:55;4.70;;;2.10;;
52878;SDS011;38747;53.140;6.498;2024-03-02T02:58:20;8.90;;;2.10;;
52878;SDS011;38747;53.140;6.498;2024-03-02T03:00:46;5.97;;;1.90;;
52878;SDS011;38747;53.140;6.498;2024-03-02T03:03:12;5.30;;;2.10;;
52878;SDS011;38747;53.140;6.498;2024-03-02T03:05:37;5.50;;;2.03;;
52878;SDS011;38747;53.140;6.498;2024-03-02T03:08:03;4.50;;;1.87;;
52878;SDS011;38747;53.140;6.498;2024-03-02T03:10:29;6.45;;;2.00;;
52878;SDS011;38747;53.140;6.498;2024-03-02T03:12:54;4.90;;;1.90;;
52878;SDS011;38747;53.140;6.498;2024-03-02T03:15:21;7.20;;;2.00;;
52878;SDS011;38747;53.140;6.498;2024-03-02T03:17:46;5.57;;;1.83;;
52878;SDS011;38747;53.140;6.498;2024-03-02T03:20:12;6.13;;;2.28;;
52878;SDS011;38747;53.140;6.498;2024-03-02T03:22:39;5.23;;;2.07;;
52878;SDS011;38747;53.140;6.498;2024-03-02T03:25:04;4.97;;;2.10;;
52878;SDS011;38747;53.140;6.498;2024-03-02T03:27:30;5.78;;;1.85;;
52878;SDS011;38747;53.140;6.498;2024-03-02T03:29:57;4.80;;;1.90;;
52878;SDS011;38747;53.140;6.498;2024-03-02T03:32:22;6.45;;;1.98;;
52878;SDS011;38747;53.140;6.498;2024-03-02T03:34:48;5.97;;;2.00;;
52878;SDS011;38747;53.140;6.498;2024-03-02T03:37:14;5.28;;;1.80;;
52878;SDS011;38747;53.140;6.498;2024-03-02T03:39:40;6.20;;;2.10;;
52878;SDS011;38747;53.140;6.498;2024-03-02T03:42:06;4.60;;;1.85;;
52878;SDS011;38747;53.140;6.498;2024-03-02T03:44:32;5.73;;;2.13;;
52878;SDS011;38747;53.140;6.498;2024-03-02T03:46:58;7.13;;;2.10;;
52878;SDS011;38747;53.140;6.498;2024-03-02T03:49:24;4.70;;;1.67;;
52878;SDS011;38747;53.140;6.498;2024-03-02T03:51:49;5.23;;;1.80;;
52878;SDS011;38747;53.140;6.498;2024-03-02T03:54:15;4.60;;;1.92;;
52878;SDS011;38747;53.140;6.498;2024-03-02T03:56:41;4.70;;;1.90;;
52878;SDS011;38747;53.140;6.498;2024-03-02T03:59:06;5.13;;;2.00;;
52878;SDS011;38747;53.140;6.498;2024-03-02T04:01:32;6.20;;;2.10;;
52878;SDS011;38747;53.140;6.498;2024-03-02T04:03:58;5.45;;;1.98;;
52878;SDS011;38747;53.140;6.498;2024-03-02T04:06:24;4.40;;;1.83;;
52878;SDS011;38747;53.140;6.498;2024-03-02T04:08:50;5.22;;;1.90;;
52878;SDS011;38747;53.140;6.498;2024-03-02T04:11:16;4.60;;;1.87;;
52878;SDS011;38747;53.140;6.498;2024-03-02T04:13:41;4.28;;;1.85;;
52878;SDS011;38747;53.140;6.498;2024-03-02T04:16:07;5.53;;;2.20;;
52878;SDS011;38747;53.140;6.498;2024-03-02T04:18:32;6.10;;;2.20;;
52878;SDS011;38747;53.140;6.498;2024-03-02T04:20:58;5.88;;;1.90;;
52878;SDS011;38747;53.140;6.498;2024-03-02T04:23:24;4.68;;;2.10;;
52878;SDS011;38747;53.140;6.498;2024-03-02T04:25:51;6.05;;;2.13;;
52878;SDS011;38747;53.140;6.498;2024-03-02T04:28:19;5.23;;;1.90;;
52878;SDS011;38747;53.140;6.498;2024-03-02T04:30:45;4.43;;;1.60;;
52878;SDS011;38747;53.140;6.498;2024-03-02T04:33:10;5.90;;;2.30;;
52878;SDS011;38747;53.140;6.498;2024-03-02T04:35:36;4.87;;;2.07;;
52878;SDS011;38747;53.140;6.498;2024-03-02T04:38:02;5.70;;;2.27;;
52878;SDS011;38747;53.140;6.498;2024-03-02T04:40:28;4.82;;;1.95;;
52878;SDS011;38747;53.140;6.498;2024-03-02T04:42:53;5.23;;;1.70;;
52878;SDS011;38747;53.140;6.498;2024-03-02T04:45:19;5.82;;;1.92;;
52878;SDS011;38747;53.140;6.498;2024-03-02T04:47:44;5.27;;;2.07;;
52878;SDS011;38747;53.140;6.498;2024-03-02T04:50:10;5.78;;;1.98;;
52878;SDS011;38747;53.140;6.498;2024-03-02T04:52:36;4.90;;;2.03;;
52878;SDS011;38747;53.140;6.498;2024-03-02T04:55:02;4.82;;;1.80;;
52878;SDS011;38747;53.140;6.498;2024-03-02T04:57:46;6.03;;;2.10;;
52878;SDS011;38747;53.140;6.498;2024-03-02T05:00:12;5.03;;;2.10;;
52878;SDS011;38747;53.140;6.498;2024-03-02T05:02:38;5.10;;;2.03;;
52878;SDS011;38747;53.140;6.498;2024-03-02T05:05:04;5.10;;;2.20;;
52878;SDS011;38747;53.140;6.498;2024-03-02T05:07:30;6.20;;;2.00;;
52878;SDS011;38747;53.140;6.498;2024-03-02T05:09:56;4.97;;;1.67;;
52878;SDS011;38747;53.140;6.498;2024-03-02T05:12:21;4.97;;;1.90;;
52878;SDS011;38747;53.140;6.498;2024-03-02T05:15:06;5.47;;;1.88;;
52878;SDS011;38747;53.140;6.498;2024-03-02T05:17:32;4.38;;;1.80;;
52878;SDS011;38747;53.140;6.498;2024-03-02T05:19:58;5.87;;;2.07;;
52878;SDS011;38747;53.140;6.498;2024-03-02T05:22:24;4.68;;;2.00;;
52878;SDS011;38747;53.140;6.498;2024-03-02T05:24:50;6.00;;;2.30;;
52878;SDS011;38747;53.140;6.498;2024-03-02T05:27:17;4.47;;;1.80;;
52878;SDS011;38747;53.140;6.498;2024-03-02T05:29:42;4.05;;;1.65;;
52878;SDS011;38747;53.140;6.498;2024-03-02T05:32:09;5.55;;;1.98;;
52878;SDS011;38747;53.140;6.498;2024-03-02T05:34:35;5.50;;;2.07;;
52878;SDS011;38747;53.140;6.498;2024-03-02T05:37:01;4.32;;;1.80;;
52878;SDS011;38747;53.140;6.498;2024-03-02T05:39:28;6.55;;;2.00;;
52878;SDS011;38747;53.140;6.498;2024-03-02T05:41:54;5.70;;;2.03;;
52878;SDS011;38747;53.140;6.498;2024-03-02T05:44:19;4.70;;;1.87;;
52878;SDS011;38747;53.140;6.498;2024-03-02T05:46:45;6.30;;;1.90;;
52878;SDS011;38747;53.140;6.498;2024-03-02T05:49:11;4.15;;;1.90;;
52878;SDS011;38747;53.140;6.498;2024-03-02T05:51:37;4.72;;;1.88;;
52878;SDS011;38747;53.140;6.498;2024-03-02T05:54:03;5.57;;;2.13;;
52878;SDS011;38747;53.140;6.498;2024-03-02T05:56:29;4.37;;;1.83;;
52878;SDS011;38747;53.140;6.498;2024-03-02T05:58:54;5.63;;;2.15;;
52878;SDS011;38747;53.140;6.498;2024-03-02T06:01:50;5.15;;;1.83;;
52878;SDS011;38747;53.140;6.498;2024-03-02T06:04:16;5.60;;;2.20;;
52878;SDS011;38747;53.140;6.498;2024-03-02T06:06:42;4.70;;;2.00;;
52878;SDS011;38747;53.140;6.498;2024-03-02T06:09:08;7.38;;;2.03;;
52878;SDS011;38747;53.140;6.498;2024-03-02T06:11:34;4.93;;;1.80;;
52878;SDS011;38747;53.140;6.498;2024-03-02T06:14:01;5.32;;;2.17;;
52878;SDS011;38747;53.140;6.498;2024-03-02T06:16:27;4.78;;;1.73;;
52878;SDS011;38747;53.140;6.498;2024-03-02T06:18:52;5.10;;;2.00;;
52878;SDS011;38747;53.140;6.498;2024-03-02T06:21:19;5.60;;;1.70;;
52878;SDS011;38747;53.140;6.498;2024-03-02T06:23:45;4.35;;;1.80;;
52878;SDS011;38747;53.140;6.498;2024-03-02T06:26:11;4.70;;;1.93;;
52878;SDS011;38747;53.140;6.498;2024-03-02T06:28:38;4.65;;;1.80;;
52878;SDS011;38747;53.140;6.498;2024-03-02T06:31:04;5.18;;;2.10;;
52878;SDS011;38747;53.140;6.498;2024-03-02T06:33:29;5.63;;;1.90;;
52878;SDS011;38747;53.140;6.498;2024-03-02T06:35:55;5.07;;;2.20;;
52878;SDS011;38747;53.140;6.498;2024-03-02T06:38:20;6.40;;;1.90;;
52878;SDS011;38747;53.140;6.498;2024-03-02T06:40:46;5.83;;;1.70;;
52878;SDS011;38747;53.140;6.498;2024-03-02T06:43:12;5.90;;;1.90;;
52878;SDS011;38747;53.140;6.498;2024-03-02T06:45:37;4.30;;;1.63;;
52878;SDS011;38747;53.140;6.498;2024-03-02T06:48:03;5.53;;;2.05;;
52878;SDS011;38747;53.140;6.498;2024-03-02T06:50:29;6.17;;;1.90;;
52878;SDS011;38747;53.140;6.498;2024-03-02T06:52:54;3.85;;;1.80;;
52878;SDS011;38747;53.140;6.498;2024-03-02T06:55:21;4.22;;;1.73;;
52878;SDS011;38747;53.140;6.498;2024-03-02T06:57:47;5.18;;;2.05;;
52878;SDS011;38747;53.140;6.498;2024-03-02T07:00:13;4.80;;;1.70;;
52878;SDS011;38747;53.140;6.498;2024-03-02T07:02:39;5.07;;;1.95;;
52878;SDS011;38747;53.140;6.498;2024-03-02T07:05:06;6.30;;;1.95;;
52878;SDS011;38747;53.140;6.498;2024-03-02T07:07:33;3.15;;;1.30;;
52878;SDS011;38747;53.140;6.498;2024-03-02T07:10:00;5.03;;;1.60;;
52878;SDS011;38747;53.140;6.498;2024-03-02T07:12:25;4.55;;;1.63;;
52878;SDS011;38747;53.140;6.498;2024-03-02T07:14:51;3.05;;;1.27;;
52878;SDS011;38747;53.140;6.498;2024-03-02T07:17:29;3.90;;;1.20;;
52878;SDS011;38747;53.140;6.498;2024-03-02T07:19:55;3.78;;;1.17;;
52878;SDS011;38747;53.140;6.498;2024-03-02T07:22:22;3.72;;;1.30;;
52878;SDS011;38747;53.140;6.498;2024-03-02T07:24:48;3.38;;;1.00;;
52878;SDS011;38747;53.140;6.498;2024-03-02T07:27:14;4.05;;;1.15;;
52878;SDS011;38747;53.140;6.498;2024-03-02T07:29:40;3.10;;;1.00;;
52878;SDS011;38747;53.140;6.498;2024-03-02T07:32:07;3.47;;;1.20;;
52878;SDS011;38747;53.140;6.498;2024-03-02T07:34:33;4.03;;;1.10;;
52878;SDS011;38747;53.140;6.498;2024-03-02T07:37:00;2.67;;;0.82;;
52878;SDS011;38747;53.140;6.498;2024-03-02T07:39:26;3.25;;;1.13;;
52878;SDS011;38747;53.140;6.498;2024-03-02T07:41:52;3.53;;;1.30;;
52878;SDS011;38747;53.140;6.498;2024-03-02T07:44:18;5.43;;;2.10;;
52878;SDS011;38747;53.140;6.498;2024-03-02T07:46:47;3.78;;;1.48;;
52878;SDS011;38747;53.140;6.498;2024-03-02T07:49:16;4.22;;;1.77;;
52878;SDS011;38747;53.140;6.498;2024-03-02T07:51:42;4.27;;;1.63;;
52878;SDS011;38747;53.140;6.498;2024-03-02T07:54:08;4.95;;;2.00;;
52878;SDS011;38747;53.140;6.498;2024-03-02T07:56:34;4.77;;;1.80;;
52878;SDS011;38747;53.140;6.498;2024-03-02T07:59:00;5.25;;;2.05;;
52878;SDS011;38747;53.140;6.498;2024-03-02T08:01:30;3.67;;;1.55;;
52878;SDS011;38747;53.140;6.498;2024-03-02T08:03:57;4.03;;;1.60;;
52878;SDS011;38747;53.140;6.498;2024-03-02T08:06:24;4.72;;;1.67;;
52878;SDS011;38747;53.140;6.498;2024-03-02T08:08:52;4.27;;;1.70;;
52878;SDS011;38747;53.140;6.498;2024-03-02T08:11:19;4.78;;;1.77;;
52878;SDS011;38747;53.140;6.498;2024-03-02T08:13:45;4.53;;;1.88;;
52878;SDS011;38747;53.140;6.498;2024-03-02T08:16:11;4.33;;;1.80;;
52878;SDS011;38747;53.140;6.498;2024-03-02T08:18:38;3.72;;;1.63;;
52878;SDS011;38747;53.140;6.498;2024-03-02T08:21:05;3.97;;;1.83;;
52878;SDS011;38747;53.140;6.498;2024-03-02T08:23:34;4.88;;;1.30;;
52878;SDS011;38747;53.140;6.498;2024-03-02T08:26:00;3.50;;;1.40;;
52878;SDS011;38747;53.140;6.498;2024-03-02T08:28:28;3.25;;;1.17;;
52878;SDS011;38747;53.140;6.498;2024-03-02T08:30:54;3.92;;;1.05;;
52878;SDS011;38747;53.140;6.498;2024-03-02T08:33:20;3.23;;;0.97;;
52878;SDS011;38747;53.140;6.498;2024-03-02T08:35:45;4.55;;;1.02;;
52878;SDS011;38747;53.140;6.498;2024-03-02T08:38:12;2.33;;;0.90;;
52878;SDS011;38747;53.140;6.498;2024-03-02T08:40:37;3.17;;;0.80;;
52878;SDS011;38747;53.140;6.498;2024-03-02T08:43:03;2.35;;;0.70;;
52878;SDS011;38747;53.140;6.498;2024-03-02T08:45:29;2.50;;;0.80;;
52878;SDS011;38747;53.140;6.498;2024-03-02T08:47:54;2.58;;;0.90;;
52878;SDS011;38747;53.140;6.498;2024-03-02T08:50:20;1.77;;;0.80;;
52878;SDS011;38747;53.140;6.498;2024-03-02T08:52:46;2.58;;;0.90;;
52878;SDS011;38747;53.140;6.498;2024-03-02T08:55:11;2.13;;;0.67;;
52878;SDS011;38747;53.140;6.498;2024-03-02T08:57:37;2.63;;;0.57;;
52878;SDS011;38747;53.140;6.498;2024-03-02T09:00:03;1.80;;;0.60;;
52878;SDS011;38747;53.140;6.498;2024-03-02T09:02:31;2.35;;;0.70;;
52878;SDS011;38747;53.140;6.498;2024-03-02T09:04:57;2.38;;;0.60;;
52878;SDS011;38747;53.140;6.498;2024-03-02T09:07:23;1.63;;;0.53;;
52878;SDS011;38747;53.140;6.498;2024-03-02T09:09:48;1.40;;;0.50;;
52878;SDS011;38747;53.140;6.498;2024-03-02T09:12:14;2.23;;;0.80;;
52878;SDS011;38747;53.140;6.498;2024-03-02T09:14:40;4.57;;;0.80;;
52878;SDS011;38747;53.140;6.498;2024-03-02T09:17:06;1.75;;;0.68;;
52878;SDS011;38747;53.140;6.498;2024-03-02T09:19:33;3.50;;;0.80;;
52878;SDS011;38747;53.140;6.498;2024-03-02T09:21:58;1.53;;;0.50;;
52878;SDS011;38747;53.140;6.498;2024-03-02T09:24:24;2.10;;;0.50;;
52878;SDS011;38747;53.140;6.498;2024-03-02T09:26:49;3.13;;;0.95;;
52878;SDS011;38747;53.140;6.498;2024-03-02T09:29:15;3.40;;;0.60;;
52878;SDS011;38747;53.140;6.498;2024-03-02T09:31:41;2.30;;;0.63;;
52878;SDS011;38747;53.140;6.498;2024-03-02T09:34:08;2.60;;;0.50;;
52878;SDS011;38747;53.140;6.498;2024-03-02T09:36:33;3.50;;;0.70;;
52878;SDS011;38747;53.140;6.498;2024-03-02T09:38:59;2.67;;;0.60;;
52878;SDS011;38747;53.140;6.498;2024-03-02T09:41:24;2.10;;;0.73;;
52878;SDS011;38747;53.140;6.498;2024-03-02T09:43:51;2.38;;;0.90;;
52878;SDS011;38747;53.140;6.498;2024-03-02T09:46:16;2.93;;;0.87;;
52878;SDS011;38747;53.140;6.498;2024-03-02T09:48:43;3.38;;;1.10;;
52878;SDS011;38747;53.140;6.498;2024-03-02T09:51:10;4.38;;;1.20;;
52878;SDS011;38747;53.140;6.498;2024-03-02T09:53:36;4.15;;;1.20;;
52878;SDS011;38747;53.140;6.498;2024-03-02T09:56:02;2.70;;;0.90;;
52878;SDS011;38747;53.140;6.498;2024-03-02T09:58:29;4.07;;;1.00;;
52878;SDS011;38747;53.140;6.498;2024-03-02T10:00:55;3.00;;;1.02;;
52878;SDS011;38747;53.140;6.498;2024-03-02T10:03:21;3.43;;;1.10;;
52878;SDS011;38747;53.140;6.498;2024-03-02T10:05:52;3.15;;;1.10;;
52878;SDS011;38747;53.140;6.498;2024-03-02T10:08:17;2.70;;;1.00;;
52878;SDS011;38747;53.140;6.498;2024-03-02T10:10:43;2.73;;;0.97;;
52878;SDS011;38747;53.140;6.498;2024-03-02T10:13:12;4.15;;;1.30;;
52878;SDS011;38747;53.140;6.498;2024-03-02T10:15:39;5.57;;;1.07;;
52878;SDS011;38747;53.140;6.498;2024-03-02T10:18:12;3.13;;;1.00;;
52878;SDS011;38747;53.140;6.498;2024-03-02T10:20:39;2.65;;;0.90;;
52878;SDS011;38747;53.140;6.498;2024-03-02T10:23:15;3.05;;;0.90;;
52878;SDS011;38747;53.140;6.498;2024-03-02T10:25:42;2.78;;;1.00;;
52878;SDS011;38747;53.140;6.498;2024-03-02T10:28:09;3.47;;;0.97;;
52878;SDS011;38747;53.140;6.498;2024-03-02T10:30:35;3.17;;;0.82;;
52878;SDS011;38747;53.140;6.498;2024-03-02T10:33:01;3.17;;;1.10;;
52878;SDS011;38747;53.140;6.498;2024-03-02T10:35:27;2.92;;;0.90;;
52878;SDS011;38747;53.140;6.498;2024-03-02T10:37:53;3.97;;;1.10;;
52878;SDS011;38747;53.140;6.498;2024-03-02T10:40:22;3.45;;;0.88;;
52878;SDS011;38747;53.140;6.498;2024-03-02T10:42:49;4.60;;;1.00;;
52878;SDS011;38747;53.140;6.498;2024-03-02T10:45:16;4.53;;;1.10;;
52878;SDS011;38747;53.140;6.498;2024-03-02T10:47:44;3.50;;;1.10;;
52878;SDS011;38747;53.140;6.498;2024-03-02T10:50:11;5.47;;;1.08;;
52878;SDS011;38747;53.140;6.498;2024-03-02T10:52:37;3.50;;;1.00;;
52878;SDS011;38747;53.140;6.498;2024-03-02T10:55:08;3.57;;;1.07;;
52878;SDS011;38747;53.140;6.498;2024-03-02T11:00:09;2.58;;;0.90;;
52878;SDS011;38747;53.140;6.498;2024-03-02T11:02:46;2.97;;;0.98;;
52878;SDS011;38747;53.140;6.498;2024-03-02T11:05:27;3.22;;;1.00;;
52878;SDS011;38747;53.140;6.498;2024-03-02T11:07:57;3.10;;;0.90;;
52878;SDS011;38747;53.140;6.498;2024-03-02T11:10:28;4.07;;;1.17;;
52878;SDS011;38747;53.140;6.498;2024-03-02T11:13:00;4.38;;;1.05;;
52878;SDS011;38747;53.140;6.498;2024-03-02T11:15:30;3.15;;;1.00;;
52878;SDS011;38747;53.140;6.498;2024-03-02T11:17:55;3.78;;;1.40;;
52878;SDS011;38747;53.140;6.498;2024-03-02T11:20:23;4.70;;;1.20;;
52878;SDS011;38747;53.140;6.498;2024-03-02T11:22:49;4.07;;;1.20;;
52878;SDS011;38747;53.140;6.498;2024-03-02T11:25:25;3.35;;;1.10;;
52878;SDS011;38747;53.140;6.498;2024-03-02T11:33:01;3.43;;;1.20;;
52878;SDS011;38747;53.140;6.498;2024-03-02T11:35:34;3.15;;;1.15;;
52878;SDS011;38747;53.140;6.498;2024-03-02T11:38:01;3.63;;;1.10;;
52878;SDS011;38747;53.140;6.498;2024-03-02T11:40:28;2.83;;;0.90;;
52878;SDS011;38747;53.140;6.498;2024-03-02T11:42:54;3.75;;;1.30;;
52878;SDS011;38747;53.140;6.498;2024-03-02T11:45:24;3.03;;;1.03;;
52878;SDS011;38747;53.140;6.498;2024-03-02T11:47:54;3.10;;;0.80;;
52878;SDS011;38747;53.140;6.498;2024-03-02T11:50:29;3.80;;;1.10;;
52878;SDS011;38747;53.140;6.498;2024-03-02T11:53:00;2.60;;;1.00;;
52878;SDS011;38747;53.140;6.498;2024-03-02T11:55:26;3.27;;;0.93;;
52878;SDS011;38747;53.140;6.498;2024-03-02T11:57:54;2.92;;;0.90;;
52878;SDS011;38747;53.140;6.498;2024-03-02T12:00:20;5.03;;;1.00;;
52878;SDS011;38747;53.140;6.498;2024-03-02T12:02:47;3.88;;;1.10;;
52878;SDS011;38747;53.140;6.498;2024-03-02T12:05:25;3.75;;;1.20;;
52878;SDS011;38747;53.140;6.498;2024-03-02T12:07:59;3.38;;;1.10;;
52878;SDS011;38747;53.140;6.498;2024-03-02T12:10:29;3.40;;;0.90;;
52878;SDS011;38747;53.140;6.498;2024-03-02T12:12:59;2.63;;;0.70;;
52878;SDS011;38747;53.140;6.498;2024-03-02T12:15:26;2.72;;;0.60;;
52878;SDS011;38747;53.140;6.498;2024-03-02T12:17:54;2.45;;;0.70;;
52878;SDS011;38747;53.140;6.498;2024-03-02T12:20:20;2.85;;;0.63;;
52878;SDS011;38747;53.140;6.498;2024-03-02T12:22:45;1.53;;;0.60;;
52878;SDS011;38747;53.140;6.498;2024-03-02T12:25:11;1.60;;;0.60;;
52878;SDS011;38747;53.140;6.498;2024-03-02T12:27:38;2.47;;;0.67;;
52878;SDS011;38747;53.140;6.498;2024-03-02T12:30:08;2.40;;;0.68;;
52878;SDS011;38747;53.140;6.498;2024-03-02T12:32:36;3.65;;;0.82;;
52878;SDS011;38747;53.140;6.498;2024-03-02T12:35:04;2.70;;;0.60;;
52878;SDS011;38747;53.140;6.498;2024-03-02T12:37:30;3.53;;;0.90;;
52878;SDS011;38747;53.140;6.498;2024-03-02T12:39:56;2.27;;;0.60;;
52878;SDS011;38747;53.140;6.498;2024-03-02T12:42:21;2.35;;;0.80;;
52878;SDS011;38747;53.140;6.498;2024-03-02T12:44:51;2.38;;;0.80;;
52878;SDS011;38747;53.140;6.498;2024-03-02T12:47:21;2.13;;;0.70;;
52878;SDS011;38747;53.140;6.498;2024-03-02T12:49:47;2.85;;;0.90;;
52878;SDS011;38747;53.140;6.498;2024-03-02T12:52:14;3.50;;;0.90;;
52878;SDS011;38747;53.140;6.498;2024-03-02T12:54:39;2.75;;;0.80;;
52878;SDS011;38747;53.140;6.498;2024-03-02T12:57:05;3.97;;;0.90;;
52878;SDS011;38747;53.140;6.498;2024-03-02T12:59:31;3.45;;;0.90;;
52878;SDS011;38747;53.140;6.498;2024-03-02T13:01:57;2.20;;;0.80;;
52878;SDS011;38747;53.140;6.498;2024-03-02T13:04:27;3.37;;;0.90;;
52878;SDS011;38747;53.140;6.498;2024-03-02T13:06:56;2.92;;;1.10;;
52878;SDS011;38747;53.140;6.498;2024-03-02T13:09:23;2.83;;;0.95;;
52878;SDS011;38747;53.140;6.498;2024-03-02T13:11:49;3.78;;;1.20;;
52878;SDS011;38747;53.140;6.498;2024-03-02T13:14:15;4.10;;;1.10;;
52878;SDS011;38747;53.140;6.498;2024-03-02T13:16:44;4.38;;;1.30;;
52878;SDS011;38747;53.140;6.498;2024-03-02T13:19:13;2.92;;;1.30;;
52878;SDS011;38747;53.140;6.498;2024-03-02T13:21:39;4.18;;;1.38;;
52878;SDS011;38747;53.140;6.498;2024-03-02T13:24:04;4.63;;;1.50;;
52878;SDS011;38747;53.140;6.498;2024-03-02T13:26:31;4.38;;;1.90;;
52878;SDS011;38747;53.140;6.498;2024-03-02T13:28:57;5.00;;;1.98;;
52878;SDS011;38747;53.140;6.498;2024-03-02T13:31:22;3.57;;;1.80;;
52878;SDS011;38747;53.140;6.498;2024-03-02T13:33:48;4.90;;;2.10;;
52878;SDS011;38747;53.140;6.498;2024-03-02T13:36:13;6.53;;;2.25;;
52878;SDS011;38747;53.140;6.498;2024-03-02T13:38:39;5.43;;;2.43;;
52878;SDS011;38747;53.140;6.498;2024-03-02T13:41:05;5.95;;;2.70;;
52878;SDS011;38747;53.140;6.498;2024-03-02T13:43:30;7.13;;;2.50;;
52878;SDS011;38747;53.140;6.498;2024-03-02T13:45:57;4.95;;;2.40;;
52878;SDS011;38747;53.140;6.498;2024-03-02T13:48:24;4.85;;;2.55;;
52878;SDS011;38747;53.140;6.498;2024-03-02T13:50:51;5.97;;;2.60;;
52878;SDS011;38747;53.140;6.498;2024-03-02T13:53:18;6.33;;;3.20;;
52878;SDS011;38747;53.140;6.498;2024-03-02T13:55:44;5.63;;;2.70;;
52878;SDS011;38747;53.140;6.498;2024-03-02T13:58:10;5.55;;;2.70;;
52878;SDS011;38747;53.140;6.498;2024-03-02T14:00:36;5.78;;;2.97;;
52878;SDS011;38747;53.140;6.498;2024-03-02T14:03:04;5.20;;;2.87;;
52878;SDS011;38747;53.140;6.498;2024-03-02T14:05:31;5.93;;;3.10;;
52878;SDS011;38747;53.140;6.498;2024-03-02T14:07:57;7.40;;;3.20;;
52878;SDS011;38747;53.140;6.498;2024-03-02T14:10:23;9.63;;;3.28;;
52878;SDS011;38747;53.140;6.498;2024-03-02T14:12:49;6.87;;;3.30;;
52878;SDS011;38747;53.140;6.498;2024-03-02T14:15:15;6.05;;;3.00;;
52878;SDS011;38747;53.140;6.498;2024-03-02T14:17:40;6.43;;;2.70;;
52878;SDS011;38747;53.140;6.498;2024-03-02T14:20:07;5.97;;;2.78;;
52878;SDS011;38747;53.140;6.498;2024-03-02T14:22:35;5.75;;;2.47;;
52878;SDS011;38747;53.140;6.498;2024-03-02T14:25:02;5.18;;;2.45;;
52878;SDS011;38747;53.140;6.498;2024-03-02T14:27:28;5.73;;;2.47;;
52878;SDS011;38747;53.140;6.498;2024-03-02T14:29:54;5.05;;;2.50;;
52878;SDS011;38747;53.140;6.498;2024-03-02T14:32:19;4.47;;;2.17;;
52878;SDS011;38747;53.140;6.498;2024-03-02T14:34:45;4.85;;;1.92;;
52878;SDS011;38747;53.140;6.498;2024-03-02T14:37:13;5.72;;;1.90;;
52878;SDS011;38747;53.140;6.498;2024-03-02T14:39:39;4.40;;;2.00;;
52878;SDS011;38747;53.140;6.498;2024-03-02T14:42:05;4.53;;;1.70;;
52878;SDS011;38747;53.140;6.498;2024-03-02T14:44:32;6.15;;;1.70;;
52878;SDS011;38747;53.140;6.498;2024-03-02T14:46:59;6.00;;;1.80;;
52878;SDS011;38747;53.140;6.498;2024-03-02T14:49:27;4.47;;;1.50;;
52878;SDS011;38747;53.140;6.498;2024-03-02T14:51:52;4.93;;;1.50;;
52878;SDS011;38747;53.140;6.498;2024-03-02T14:54:19;3.92;;;1.35;;
52878;SDS011;38747;53.140;6.498;2024-03-02T14:56:44;3.87;;;1.27;;